METAR AND TAF INFORMATION
METAR FOR LEIB
ADDS - METARS form results

(0034 UTC 18 July 2018)
Data provider http://aviationweather.gov/adds/metars/
 
METAR text: LEIB 180030Z 07005KT CAVOK 25/22 Q1015 NOSIG
Conditions at: LEIB (IBIZA/ES CODOLA , ES) observed 0030 UTC 18 July 2018
Temperature: 25.0°C (77°F)
Dewpoint: 22.0°C (72°F) [RH = 83%]
Pressure (altimeter): 29.97 inches Hg (1015.0 mb)
Winds: from the ENE (70 degrees) at 6 MPH (5 knots; 2.6 m/s)
Visibility: 6 or more miles (10+ km)
Ceiling: ceiling and visibility are OK
Clouds: unknown
Weather: no significant weather observed at this time

METAR text: LEIB 180000Z 08004KT 050V120 CAVOK 25/22 Q1015 NOSIG
Conditions at: LEIB (IBIZA/ES CODOLA , ES) observed 0000 UTC 18 July 2018
Temperature: 25.0°C (77°F)
Dewpoint: 22.0°C (72°F) [RH = 83%]
Pressure (altimeter): 29.97 inches Hg (1015.0 mb)
Winds: from the E (80 degrees) at 5 MPH (4 knots; 2.1 m/s)
Visibility: 6 or more miles (10+ km)
Ceiling: ceiling and visibility are OK
Clouds: unknown
Weather: no significant weather observed at this time

Forecast for: LEIB (IBIZA/ES CODOLA , ES)
Text: TAF LEIB 172000Z 1721/1821 08009KT 9999 FEW015 TX29/1812Z TN23/1805Z
Forecast period: 2100 UTC 17 July 2018 to 2100 UTC 18 July 2018
Forecast type: FROM: standard forecast or significant change
Winds: from the E (80 degrees) at 10 MPH (9 knots; 4.7 m/s)
Visibility: 6 or more miles (10+ km)
Clouds: few clouds at 1500 feet AGL
Weather: no significant weather forecast for this period

 AIRPORT MAP

 RUNWAY INFORMATION
Runway 06 Runway length 9186 ft Runway width 148 ft
Runway elevation 13 ft Runway displaced threshold 0 ft Runway heading 62
Runway 24 Runway length 9186 ft Runway width 148 ft
Runway elevation 16 ft Runway displaced threshold 0 ft Runway heading 242

 AIRPORT FREQUENCIES
Type APP Name PALMA APP Frequency 118.125 MHZ
Type APP Name APP Frequency 119.8 MHZ
Type ATIS Name ATIS Frequency 117.8 MHZ
Type GND Name GND Frequency 121.8 MHZ
Type TWR Name TWR Frequency 118.5 MHZ

 AIRPORT NEAR NAVIGATION AIDS
Type VOR-DME Name Ibiza Frequency 117800 KHZ
Type NDB Name Ibiza Frequency 394 KHZ



Air Greece virtual AIrline - All rights reserved 2018 - Powered by Virtual Airlines Manager [v2.6.2]